sensor_id;sensor_type;location;lat;lon;timestamp;pressure;altitude;pressure_sealevel;temperature;humidity
48204;BME280;33994;50.998;5.864;2023-03-04T00:02:11;102126.91;;;2.12;84.83
48204;BME280;33994;50.998;5.864;2023-03-04T00:05:14;102132.06;;;2.12;84.83
48204;BME280;33994;50.998;5.864;2023-03-04T00:08:17;102134.66;;;2.12;84.77
48204;BME280;33994;50.998;5.864;2023-03-04T00:11:21;102125.25;;;2.13;85.08
48204;BME280;33994;50.998;5.864;2023-03-04T00:16:43;102126.13;;;2.13;85.12
48204;BME280;33994;50.998;5.864;2023-03-04T00:19:46;102122.72;;;2.14;84.86
48204;BME280;33994;50.998;5.864;2023-03-04T00:22:49;102114.13;;;2.15;84.81
48204;BME280;33994;50.998;5.864;2023-03-04T00:25:52;102114.28;;;2.18;85.01
48204;BME280;33994;50.998;5.864;2023-03-04T00:28:55;102108.16;;;2.16;84.69
48204;BME280;33994;50.998;5.864;2023-03-04T00:32:00;102105.53;;;2.15;85.13
48204;BME280;33994;50.998;5.864;2023-03-04T00:35:04;102104.63;;;2.14;85.09
48204;BME280;33994;50.998;5.864;2023-03-04T00:38:07;102111.56;;;2.15;85.30
48204;BME280;33994;50.998;5.864;2023-03-04T00:41:10;102100.34;;;2.15;85.01
48204;BME280;33994;50.998;5.864;2023-03-04T00:44:13;102096.16;;;2.17;85.07
48204;BME280;33994;50.998;5.864;2023-03-04T00:47:17;102099.53;;;2.16;84.98
48204;BME280;33994;50.998;5.864;2023-03-04T00:50:21;102102.88;;;2.13;85.35
48204;BME280;33994;50.998;5.864;2023-03-04T00:53:24;102105.47;;;2.13;85.45
48204;BME280;33994;50.998;5.864;2023-03-04T00:56:27;102105.47;;;2.13;85.21
48204;BME280;33994;50.998;5.864;2023-03-04T00:59:31;102105.47;;;2.13;85.26
48204;BME280;33994;50.998;5.864;2023-03-04T01:02:36;102109.75;;;2.13;85.37
48204;BME280;33994;50.998;5.864;2023-03-04T01:05:39;102102.81;;;2.12;85.21
48204;BME280;33994;50.998;5.864;2023-03-04T01:08:42;102099.31;;;2.10;85.47
48204;BME280;33994;50.998;5.864;2023-03-04T01:11:45;102095.84;;;2.09;85.47
48204;BME280;33994;50.998;5.864;2023-03-04T01:14:48;102102.63;;;2.07;85.49
48204;BME280;33994;50.998;5.864;2023-03-04T01:17:53;102099.19;;;2.07;85.41
48204;BME280;33994;50.998;5.864;2023-03-04T01:20:56;102096.72;;;2.10;85.41
48204;BME280;33994;50.998;5.864;2023-03-04T01:23:59;102092.31;;;2.07;85.69
48204;BME280;33994;50.998;5.864;2023-03-04T01:27:03;102091.47;;;2.08;85.48
48204;BME280;33994;50.998;5.864;2023-03-04T01:30:07;102096.53;;;2.05;85.47
48204;BME280;33994;50.998;5.864;2023-03-04T01:33:12;102093.00;;;2.03;85.67
48204;BME280;33994;50.998;5.864;2023-03-04T01:36:15;102084.31;;;2.01;85.52
48204;BME280;33994;50.998;5.864;2023-03-04T01:39:18;102086.09;;;2.02;85.63
48204;BME280;33994;50.998;5.864;2023-03-04T01:42:22;102080.81;;;1.99;85.88
48204;BME280;33994;50.998;5.864;2023-03-04T01:45:25;102075.66;;;1.99;85.69
48204;BME280;33994;50.998;5.864;2023-03-04T01:48:32;102076.53;;;2.00;86.04
48204;BME280;33994;50.998;5.864;2023-03-04T01:51:36;102073.19;;;2.02;86.25
48204;BME280;33994;50.998;5.864;2023-03-04T01:54:40;102072.41;;;2.05;86.21
48204;BME280;33994;50.998;5.864;2023-03-04T01:57:44;102068.97;;;2.04;86.07
48204;BME280;33994;50.998;5.864;2023-03-04T02:00:48;102067.34;;;2.06;85.94
48204;BME280;33994;50.998;5.864;2023-03-04T02:03:52;102068.22;;;2.07;86.23
48204;BME280;33994;50.998;5.864;2023-03-04T02:06:56;102058.75;;;2.07;86.20
48204;BME280;33994;50.998;5.864;2023-03-04T02:10:01;102067.38;;;2.08;86.08
48204;BME280;33994;50.998;5.864;2023-03-04T02:13:05;102060.50;;;2.08;86.28
48204;BME280;33994;50.998;5.864;2023-03-04T02:16:08;102058.00;;;2.10;86.09
48204;BME280;33994;50.998;5.864;2023-03-04T02:19:17;102053.72;;;2.10;86.19
48204;BME280;33994;50.998;5.864;2023-03-04T02:22:21;102041.66;;;2.09;86.28
48204;BME280;33994;50.998;5.864;2023-03-04T02:25:29;102041.66;;;2.09;86.49
48204;BME280;33994;50.998;5.864;2023-03-04T02:28:33;102035.56;;;2.09;86.21
48204;BME280;33994;50.998;5.864;2023-03-04T02:31:38;102039.13;;;2.11;86.19
48204;BME280;33994;50.998;5.864;2023-03-04T02:34:45;102032.25;;;2.11;86.71
48204;BME280;33994;50.998;5.864;2023-03-04T02:37:48;102028.03;;;2.13;86.19
48204;BME280;33994;50.998;5.864;2023-03-04T02:40:53;102035.06;;;2.17;85.97
48204;BME280;33994;50.998;5.864;2023-03-04T02:43:59;102026.50;;;2.18;86.32
48204;BME280;33994;50.998;5.864;2023-03-04T02:47:04;102028.25;;;2.20;86.14
48204;BME280;33994;50.998;5.864;2023-03-04T02:50:08;102022.28;;;2.21;86.13
48204;BME280;33994;50.998;5.864;2023-03-04T02:53:12;102026.66;;;2.23;86.42
48204;BME280;33994;50.998;5.864;2023-03-04T02:56:15;102026.66;;;2.23;86.67
48204;BME280;33994;50.998;5.864;2023-03-04T02:59:21;102021.59;;;2.25;86.35
48204;BME280;33994;50.998;5.864;2023-03-04T03:02:26;102019.06;;;2.26;86.27
48204;BME280;33994;50.998;5.864;2023-03-04T03:05:31;102018.19;;;2.26;86.59
48204;BME280;33994;50.998;5.864;2023-03-04T03:08:34;102020.88;;;2.29;86.62
48204;BME280;33994;50.998;5.864;2023-03-04T03:11:37;102013.94;;;2.28;86.40
48204;BME280;33994;50.998;5.864;2023-03-04T03:14:41;102017.47;;;2.30;86.63
48204;BME280;33994;50.998;5.864;2023-03-04T03:17:45;102011.47;;;2.31;86.29
48204;BME280;33994;50.998;5.864;2023-03-04T03:20:48;102014.13;;;2.32;86.10
48204;BME280;33994;50.998;5.864;2023-03-04T03:23:51;102009.97;;;2.36;86.09
48204;BME280;33994;50.998;5.864;2023-03-04T03:26:55;102012.56;;;2.36;86.23
48204;BME280;33994;50.998;5.864;2023-03-04T03:29:59;102003.91;;;2.35;86.24
48204;BME280;33994;50.998;5.864;2023-03-04T03:33:03;101995.34;;;2.36;86.23
48204;BME280;33994;50.998;5.864;2023-03-04T03:36:07;101994.47;;;2.36;86.21
48204;BME280;33994;50.998;5.864;2023-03-04T03:39:10;101991.00;;;2.35;86.15
48204;BME280;33994;50.998;5.864;2023-03-04T03:42:13;101990.13;;;2.35;86.15
48204;BME280;33994;50.998;5.864;2023-03-04T03:45:18;102000.50;;;2.36;86.31
48204;BME280;33994;50.998;5.864;2023-03-04T03:48:21;101985.03;;;2.36;86.20
48204;BME280;33994;50.998;5.864;2023-03-04T03:51:24;101997.97;;;2.38;86.26
48204;BME280;33994;50.998;5.864;2023-03-04T03:54:27;101994.56;;;2.39;86.03
48204;BME280;33994;50.998;5.864;2023-03-04T03:57:30;101991.94;;;2.37;86.08
48204;BME280;33994;50.998;5.864;2023-03-04T04:00:34;101996.22;;;2.37;86.31
48204;BME280;33994;50.998;5.864;2023-03-04T04:03:37;101994.47;;;2.36;86.52
48204;BME280;33994;50.998;5.864;2023-03-04T04:06:40;102002.25;;;2.37;86.58
48204;BME280;33994;50.998;5.864;2023-03-04T04:09:43;101997.16;;;2.39;86.45
48204;BME280;33994;50.998;5.864;2023-03-04T04:12:46;101996.38;;;2.41;86.73
48204;BME280;33994;50.998;5.864;2023-03-04T04:15:51;102001.59;;;2.43;86.53
48204;BME280;33994;50.998;5.864;2023-03-04T04:18:55;101999.13;;;2.46;86.08
48204;BME280;33994;50.998;5.864;2023-03-04T04:21:58;101997.53;;;2.50;86.12
48204;BME280;33994;50.998;5.864;2023-03-04T04:25:01;101996.06;;;2.56;85.50
48204;BME280;33994;50.998;5.864;2023-03-04T04:28:04;102003.09;;;2.60;85.07
48204;BME280;33994;50.998;5.864;2023-03-04T04:31:09;101997.09;;;2.61;84.99
48204;BME280;33994;50.998;5.864;2023-03-04T04:34:11;101996.41;;;2.65;84.80
48204;BME280;33994;50.998;5.864;2023-03-04T04:37:15;101999.09;;;2.69;84.54
48204;BME280;33994;50.998;5.864;2023-03-04T04:40:18;101999.25;;;2.73;84.03
48204;BME280;33994;50.998;5.864;2023-03-04T04:43:21;102002.03;;;2.78;83.77
48204;BME280;33994;50.998;5.864;2023-03-04T04:46:26;102005.56;;;2.81;83.39
48204;BME280;33994;50.998;5.864;2023-03-04T04:49:29;102008.34;;;2.86;83.55
48204;BME280;33994;50.998;5.864;2023-03-04T04:52:32;102006.66;;;2.88;83.22
48204;BME280;33994;50.998;5.864;2023-03-04T04:55:35;102003.34;;;2.90;83.32
48204;BME280;33994;50.998;5.864;2023-03-04T04:58:39;102000.78;;;2.92;83.25
48204;BME280;33994;50.998;5.864;2023-03-04T05:01:44;102003.47;;;2.95;83.06
48204;BME280;33994;50.998;5.864;2023-03-04T05:04:47;102006.09;;;2.97;83.02
48204;BME280;33994;50.998;5.864;2023-03-04T05:07:50;102004.44;;;2.97;83.02
48204;BME280;33994;50.998;5.864;2023-03-04T05:10:52;102001.94;;;3.00;82.90
48204;BME280;33994;50.998;5.864;2023-03-04T05:13:56;102008.03;;;3.02;82.69
48204;BME280;33994;50.998;5.864;2023-03-04T05:17:00;102011.63;;;3.06;82.61
48204;BME280;33994;50.998;5.864;2023-03-04T05:20:04;102009.06;;;3.07;82.42
48204;BME280;33994;50.998;5.864;2023-03-04T05:23:07;102005.75;;;3.11;82.24
48204;BME280;33994;50.998;5.864;2023-03-04T05:26:12;102004.97;;;3.12;82.49
48204;BME280;33994;50.998;5.864;2023-03-04T05:29:16;102004.13;;;3.13;82.41
48204;BME280;33994;50.998;5.864;2023-03-04T05:32:20;102005.88;;;3.14;82.41
48204;BME280;33994;50.998;5.864;2023-03-04T05:35:23;102005.03;;;3.15;82.14
48204;BME280;33994;50.998;5.864;2023-03-04T05:38:26;102009.41;;;3.17;82.06
48204;BME280;33994;50.998;5.864;2023-03-04T05:41:30;102006.00;;;3.18;81.87
48204;BME280;33994;50.998;5.864;2023-03-04T05:44:33;102009.50;;;3.20;81.75
48204;BME280;33994;50.998;5.864;2023-03-04T05:47:37;102015.59;;;3.22;82.07
48204;BME280;33994;50.998;5.864;2023-03-04T05:50:40;102007.84;;;3.22;82.14
48204;BME280;33994;50.998;5.864;2023-03-04T05:53:43;102013.91;;;3.22;82.19
48204;BME280;33994;50.998;5.864;2023-03-04T05:56:46;102011.38;;;3.24;82.29
48204;BME280;33994;50.998;5.864;2023-03-04T05:59:49;102017.44;;;3.24;82.30
48204;BME280;33994;50.998;5.864;2023-03-04T06:02:54;102017.47;;;3.26;82.45
48204;BME280;33994;50.998;5.864;2023-03-04T06:05:57;102011.44;;;3.27;82.35
48204;BME280;33994;50.998;5.864;2023-03-04T06:09:00;102023.63;;;3.29;82.46
48204;BME280;33994;50.998;5.864;2023-03-04T06:12:03;102024.50;;;3.30;82.33
48204;BME280;33994;50.998;5.864;2023-03-04T06:15:07;102011.56;;;3.30;82.16
48204;BME280;33994;50.998;5.864;2023-03-04T06:18:12;102015.00;;;3.29;81.69
48204;BME280;33994;50.998;5.864;2023-03-04T06:21:15;102018.41;;;3.28;81.93
48204;BME280;33994;50.998;5.864;2023-03-04T06:24:18;102023.66;;;3.31;81.77
48204;BME280;33994;50.998;5.864;2023-03-04T06:27:21;102025.47;;;3.33;81.39
48204;BME280;33994;50.998;5.864;2023-03-04T06:30:24;102028.06;;;3.33;81.40
48204;BME280;33994;50.998;5.864;2023-03-04T06:33:28;102027.19;;;3.33;81.45
48204;BME280;33994;50.998;5.864;2023-03-04T06:36:31;102038.53;;;3.36;81.48
48204;BME280;33994;50.998;5.864;2023-03-04T06:39:34;102038.53;;;3.36;81.74
48204;BME280;33994;50.998;5.864;2023-03-04T06:42:38;102037.66;;;3.36;81.83
48204;BME280;33994;50.998;5.864;2023-03-04T06:45:42;102041.97;;;3.37;81.99
48204;BME280;33994;50.998;5.864;2023-03-04T06:48:46;102048.00;;;3.36;82.10
48204;BME280;33994;50.998;5.864;2023-03-04T06:51:49;102042.03;;;3.38;82.14
48204;BME280;33994;50.998;5.864;2023-03-04T06:54:52;102048.03;;;3.37;82.47
48204;BME280;33994;50.998;5.864;2023-03-04T06:57:55;102051.50;;;3.38;82.77
48204;BME280;33994;50.998;5.864;2023-03-04T07:01:09;102051.59;;;3.41;83.11
48204;BME280;33994;50.998;5.864;2023-03-04T07:04:14;102055.06;;;3.42;83.07
48204;BME280;33994;50.998;5.864;2023-03-04T07:07:16;102051.63;;;3.43;83.05
48204;BME280;33994;50.998;5.864;2023-03-04T07:10:19;102056.81;;;3.43;82.83
48204;BME280;33994;50.998;5.864;2023-03-04T07:13:23;102055.03;;;3.40;82.33
48204;BME280;33994;50.998;5.864;2023-03-04T07:16:26;102063.69;;;3.42;81.90
48204;BME280;33994;50.998;5.864;2023-03-04T07:19:30;102061.06;;;3.40;81.51
48204;BME280;33994;50.998;5.864;2023-03-04T07:22:33;102061.09;;;3.42;81.01
48204;BME280;33994;50.998;5.864;2023-03-04T07:25:37;102058.53;;;3.42;80.67
48204;BME280;33994;50.998;5.864;2023-03-04T07:28:40;102070.69;;;3.45;80.30
48204;BME280;33994;50.998;5.864;2023-03-04T07:31:43;102072.50;;;3.47;80.08
48204;BME280;33994;50.998;5.864;2023-03-04T07:34:47;102076.00;;;3.49;79.69
48204;BME280;33994;50.998;5.864;2023-03-04T07:37:50;102064.03;;;3.51;79.48
48204;BME280;33994;50.998;5.864;2023-03-04T07:40:55;102074.38;;;3.51;79.44
48204;BME280;33994;50.998;5.864;2023-03-04T07:43:58;102076.16;;;3.54;79.41
48204;BME280;33994;50.998;5.864;2023-03-04T07:47:01;102071.91;;;3.54;79.43
48204;BME280;33994;50.998;5.864;2023-03-04T07:50:07;102077.97;;;3.56;79.30
48204;BME280;33994;50.998;5.864;2023-03-04T07:53:11;102078.09;;;3.59;79.39
48204;BME280;33994;50.998;5.864;2023-03-04T07:56:15;102075.53;;;3.61;79.12
48204;BME280;33994;50.998;5.864;2023-03-04T07:59:19;102080.78;;;3.62;79.33
48204;BME280;33994;50.998;5.864;2023-03-04T08:02:22;102086.06;;;3.66;79.27
48204;BME280;33994;50.998;5.864;2023-03-04T08:05:26;102091.28;;;3.67;79.22
48204;BME280;33994;50.998;5.864;2023-03-04T08:08:29;102089.69;;;3.71;79.26
48204;BME280;33994;50.998;5.864;2023-03-04T08:11:34;102087.09;;;3.71;79.28
48204;BME280;33994;50.998;5.864;2023-03-04T08:14:38;102092.38;;;3.74;79.38
48204;BME280;33994;50.998;5.864;2023-03-04T08:17:41;102095.03;;;3.77;79.40
48204;BME280;33994;50.998;5.864;2023-03-04T08:20:45;102101.06;;;3.76;79.63
48204;BME280;33994;50.998;5.864;2023-03-04T08:23:49;102104.38;;;3.72;80.01
48204;BME280;33994;50.998;5.864;2023-03-04T08:26:53;102093.91;;;3.69;81.01
48204;BME280;33994;50.998;5.864;2023-03-04T08:29:56;102100.75;;;3.67;81.77
48204;BME280;33994;50.998;5.864;2023-03-04T08:33:00;102104.25;;;3.69;82.06
48204;BME280;33994;50.998;5.864;2023-03-04T08:36:05;102112.09;;;3.70;82.18
48204;BME280;33994;50.998;5.864;2023-03-04T08:39:11;102111.22;;;3.70;82.56
48204;BME280;33994;50.998;5.864;2023-03-04T08:42:15;102118.16;;;3.71;82.85
48204;BME280;33994;50.998;5.864;2023-03-04T08:45:18;102114.78;;;3.73;82.88
48204;BME280;33994;50.998;5.864;2023-03-04T08:48:22;102118.31;;;3.77;82.65
48204;BME280;33994;50.998;5.864;2023-03-04T08:51:27;102113.16;;;3.77;82.76
48204;BME280;33994;50.998;5.864;2023-03-04T08:54:30;102107.03;;;3.73;83.02
48204;BME280;33994;50.998;5.864;2023-03-04T08:57:34;102113.88;;;3.73;83.35
48204;BME280;33994;50.998;5.864;2023-03-04T09:00:39;102110.50;;;3.74;83.80
48204;BME280;33994;50.998;5.864;2023-03-04T09:03:42;102110.56;;;3.77;83.88
48204;BME280;33994;50.998;5.864;2023-03-04T09:06:46;102109.91;;;3.82;83.77
48204;BME280;33994;50.998;5.864;2023-03-04T09:09:49;102104.88;;;3.87;83.78
48204;BME280;33994;50.998;5.864;2023-03-04T09:12:53;102114.41;;;3.88;83.75
48204;BME280;33994;50.998;5.864;2023-03-04T09:15:56;102116.25;;;3.92;83.93
48204;BME280;33994;50.998;5.864;2023-03-04T09:19:00;102114.66;;;3.96;83.71
48204;BME280;33994;50.998;5.864;2023-03-04T09:22:05;102113.78;;;3.95;83.85
48204;BME280;33994;50.998;5.864;2023-03-04T09:25:10;102117.16;;;3.93;83.93
48204;BME280;33994;50.998;5.864;2023-03-04T09:28:16;102116.34;;;3.95;84.04
48204;BME280;33994;50.998;5.864;2023-03-04T09:31:19;102104.34;;;3.97;84.07
48204;BME280;33994;50.998;5.864;2023-03-04T09:34:22;102098.56;;;4.04;84.49
48204;BME280;33994;50.998;5.864;2023-03-04T09:37:26;102099.66;;;4.12;84.77
48204;BME280;33994;50.998;5.864;2023-03-04T09:40:31;102100.66;;;4.16;84.64
48204;BME280;33994;50.998;5.864;2023-03-04T09:43:37;102101.72;;;4.23;83.89
48204;BME280;33994;50.998;5.864;2023-03-04T09:46:42;102090.66;;;4.28;83.91
48204;BME280;33994;50.998;5.864;2023-03-04T09:49:52;102093.63;;;4.41;83.97
48204;BME280;33994;50.998;5.864;2023-03-04T09:53:05;102086.09;;;4.48;83.27
48204;BME280;33994;50.998;5.864;2023-03-04T09:56:09;102088.88;;;4.54;83.25
48204;BME280;33994;50.998;5.864;2023-03-04T09:59:17;102091.56;;;4.57;82.63
48204;BME280;33994;50.998;5.864;2023-03-04T10:02:28;102084.59;;;4.56;81.91
48204;BME280;33994;50.998;5.864;2023-03-04T10:05:41;102085.53;;;4.58;81.53
48204;BME280;33994;50.998;5.864;2023-03-04T10:08:51;102084.69;;;4.59;81.41
48204;BME280;33994;50.998;5.864;2023-03-04T10:12:00;102083.84;;;4.60;81.53
48204;BME280;33994;50.998;5.864;2023-03-04T10:15:07;102084.94;;;4.67;81.41
48204;BME280;33994;50.998;5.864;2023-03-04T10:18:21;102081.66;;;4.73;81.53
48204;BME280;33994;50.998;5.864;2023-03-04T10:21:29;102079.97;;;4.75;81.15
48204;BME280;33994;50.998;5.864;2023-03-04T10:24:35;102075.63;;;4.74;81.50
48204;BME280;33994;50.998;5.864;2023-03-04T10:27:38;102071.13;;;4.68;81.80
48204;BME280;33994;50.998;5.864;2023-03-04T10:30:48;102071.09;;;4.67;82.06
48204;BME280;33994;50.998;5.864;2023-03-04T10:33:53;102072.16;;;4.73;82.11
48204;BME280;33994;50.998;5.864;2023-03-04T10:36:58;102067.19;;;4.81;81.51
48204;BME280;33994;50.998;5.864;2023-03-04T10:40:03;102076.97;;;4.91;81.21
48204;BME280;33994;50.998;5.864;2023-03-04T10:43:14;102065.72;;;4.91;80.57
48204;BME280;33994;50.998;5.864;2023-03-04T10:46:19;102070.91;;;4.91;80.38
48204;BME280;33994;50.998;5.864;2023-03-04T10:49:23;102071.00;;;4.92;80.34
48204;BME280;33994;50.998;5.864;2023-03-04T10:52:29;102070.19;;;4.95;80.51
48204;BME280;33994;50.998;5.864;2023-03-04T10:55:43;102073.75;;;4.98;80.73
48204;BME280;33994;50.998;5.864;2023-03-04T10:58:46;102071.22;;;5.00;80.61
48204;BME280;33994;50.998;5.864;2023-03-04T11:01:49;102063.38;;;4.98;80.39
48204;BME280;33994;50.998;5.864;2023-03-04T11:04:55;102062.50;;;4.98;79.98
48204;BME280;33994;50.998;5.864;2023-03-04T11:07:59;102055.69;;;5.01;79.69
48204;BME280;33994;50.998;5.864;2023-03-04T11:11:20;102056.75;;;5.08;79.19
48204;BME280;33994;50.998;5.864;2023-03-04T11:14:24;102049.94;;;5.13;79.73
48204;BME280;33994;50.998;5.864;2023-03-04T11:17:40;102039.78;;;5.21;79.25
48204;BME280;33994;50.998;5.864;2023-03-04T11:20:46;102046.81;;;5.25;79.12
48204;BME280;33994;50.998;5.864;2023-03-04T11:23:52;102045.22;;;5.30;79.11
48204;BME280;33994;50.998;5.864;2023-03-04T11:27:02;102043.53;;;5.32;78.71
48204;BME280;33994;50.998;5.864;2023-03-04T11:30:26;102038.53;;;5.38;78.35
48204;BME280;33994;50.998;5.864;2023-03-04T11:33:37;102030.00;;;5.44;78.10
48204;BME280;33994;50.998;5.864;2023-03-04T11:36:51;102036.03;;;5.43;77.79
48204;BME280;33994;50.998;5.864;2023-03-04T11:40:00;102034.22;;;5.40;78.00
48204;BME280;33994;50.998;5.864;2023-03-04T11:43:06;102024.78;;;5.42;77.91
48204;BME280;33994;50.998;5.864;2023-03-04T11:46:27;102023.97;;;5.45;77.83
48204;BME280;33994;50.998;5.864;2023-03-04T11:50:16;102017.28;;;5.53;77.41
48204;BME280;33994;50.998;5.864;2023-03-04T11:53:31;102019.22;;;5.62;77.61
48204;BME280;33994;50.998;5.864;2023-03-04T11:56:38;102016.69;;;5.65;77.39
48204;BME280;33994;50.998;5.864;2023-03-04T11:59:58;102007.94;;;5.61;77.40
48204;BME280;33994;50.998;5.864;2023-03-04T12:03:23;102001.13;;;5.65;76.81
48204;BME280;33994;50.998;5.864;2023-03-04T12:06:43;102001.88;;;5.61;76.68
48204;BME280;33994;50.998;5.864;2023-03-04T12:09:57;101998.38;;;5.60;76.46
48204;BME280;33994;50.998;5.864;2023-03-04T12:13:24;101999.28;;;5.61;76.37
48204;BME280;33994;50.998;5.864;2023-03-04T12:16:51;101991.53;;;5.62;76.24
48204;BME280;33994;50.998;5.864;2023-03-04T12:23:30;101970.91;;;5.68;76.64
48204;BME280;33994;50.998;5.864;2023-03-04T12:26:41;101964.19;;;5.76;76.51
48204;BME280;33994;50.998;5.864;2023-03-04T12:29:53;101968.53;;;5.77;76.13
48204;BME280;33994;50.998;5.864;2023-03-04T12:33:03;101965.13;;;5.80;76.03
48204;BME280;33994;50.998;5.864;2023-03-04T12:36:17;101958.16;;;5.79;76.04
48204;BME280;33994;50.998;5.864;2023-03-04T12:39:31;101959.00;;;5.78;76.12
48204;BME280;33994;50.998;5.864;2023-03-04T12:42:42;101956.41;;;5.78;75.98
48204;BME280;33994;50.998;5.864;2023-03-04T12:45:56;101947.78;;;5.79;75.91
48204;BME280;33994;50.998;5.864;2023-03-04T12:52:46;101946.88;;;5.77;76.13
48204;BME280;33994;50.998;5.864;2023-03-04T12:55:53;101941.00;;;5.84;76.14
48204;BME280;33994;50.998;5.864;2023-03-04T12:58:57;101942.81;;;5.88;75.87
48204;BME280;33994;50.998;5.864;2023-03-04T13:02:13;101941.09;;;5.90;76.01
48204;BME280;33994;50.998;5.864;2023-03-04T13:05:38;101930.78;;;5.92;76.11
48204;BME280;33994;50.998;5.864;2023-03-04T13:08:55;101929.06;;;5.94;75.96
48204;BME280;33994;50.998;5.864;2023-03-04T13:12:03;101918.69;;;5.94;76.00
48204;BME280;33994;50.998;5.864;2023-03-04T13:15:27;101913.47;;;5.92;76.55
48204;BME280;33994;50.998;5.864;2023-03-04T13:18:32;101917.75;;;5.90;76.58
48204;BME280;33994;50.998;5.864;2023-03-04T13:21:43;101914.19;;;5.87;76.64
48204;BME280;33994;50.998;5.864;2023-03-04T13:24:49;101917.56;;;5.81;77.07
48204;BME280;33994;50.998;5.864;2023-03-04T13:31:28;101898.44;;;5.77;77.32
48204;BME280;33994;50.998;5.864;2023-03-04T13:34:44;101903.56;;;5.74;77.41
48204;BME280;33994;50.998;5.864;2023-03-04T13:37:57;101903.56;;;5.74;77.76
48204;BME280;33994;50.998;5.864;2023-03-04T13:41:11;101899.22;;;5.75;77.34
48204;BME280;33994;50.998;5.864;2023-03-04T13:44:57;101896.75;;;5.79;77.65
48204;BME280;33994;50.998;5.864;2023-03-04T13:48:02;101892.56;;;5.86;77.87
48204;BME280;33994;50.998;5.864;2023-03-04T13:51:13;101892.72;;;5.94;77.94
48204;BME280;33994;50.998;5.864;2023-03-04T13:54:22;101892.00;;;6.01;77.62
48204;BME280;33994;50.998;5.864;2023-03-04T13:57:29;101890.41;;;6.07;77.69
48204;BME280;33994;50.998;5.864;2023-03-04T14:00:34;101882.69;;;6.11;77.43
48204;BME280;33994;50.998;5.864;2023-03-04T14:03:38;101884.41;;;6.10;76.93
48204;BME280;33994;50.998;5.864;2023-03-04T14:06:42;101885.28;;;6.11;77.10
48204;BME280;33994;50.998;5.864;2023-03-04T14:09:53;101879.19;;;6.08;77.08
48204;BME280;33994;50.998;5.864;2023-03-04T14:12:59;101877.50;;;6.11;76.72
48204;BME280;33994;50.998;5.864;2023-03-04T14:16:03;101866.28;;;6.13;77.14
48204;BME280;33994;50.998;5.864;2023-03-04T14:19:13;101862.88;;;6.16;76.66
48204;BME280;33994;50.998;5.864;2023-03-04T14:22:19;101862.09;;;6.20;76.73
48204;BME280;33994;50.998;5.864;2023-03-04T14:25:26;101857.84;;;6.25;76.90
48204;BME280;33994;50.998;5.864;2023-03-04T14:28:31;101857.84;;;6.25;76.81
48204;BME280;33994;50.998;5.864;2023-03-04T14:31:34;101856.16;;;6.25;76.64
48204;BME280;33994;50.998;5.864;2023-03-04T14:34:38;101858.75;;;6.25;77.19
48204;BME280;33994;50.998;5.864;2023-03-04T14:37:43;101851.81;;;6.26;77.33
48204;BME280;33994;50.998;5.864;2023-03-04T14:40:52;101851.81;;;6.26;77.18
48204;BME280;33994;50.998;5.864;2023-03-04T14:44:03;101846.66;;;6.27;77.51
48204;BME280;33994;50.998;5.864;2023-03-04T14:47:11;101847.44;;;6.23;77.24
48204;BME280;33994;50.998;5.864;2023-03-04T14:50:17;101840.50;;;6.22;77.63
48204;BME280;33994;50.998;5.864;2023-03-04T14:53:22;101832.72;;;6.24;77.96
48204;BME280;33994;50.998;5.864;2023-03-04T14:56:27;101830.19;;;6.27;78.20
48204;BME280;33994;50.998;5.864;2023-03-04T14:59:34;101825.91;;;6.29;78.06
48204;BME280;33994;50.998;5.864;2023-03-04T15:02:38;101824.19;;;6.31;78.19
48204;BME280;33994;50.998;5.864;2023-03-04T15:05:41;101815.50;;;6.29;78.23
48204;BME280;33994;50.998;5.864;2023-03-04T15:08:45;101817.13;;;6.24;78.48
48204;BME280;33994;50.998;5.864;2023-03-04T15:11:50;101813.66;;;6.23;78.94
48204;BME280;33994;50.998;5.864;2023-03-04T15:14:57;101823.25;;;6.27;79.13
48204;BME280;33994;50.998;5.864;2023-03-04T15:18:11;101802.53;;;6.29;79.18
48204;BME280;33994;50.998;5.864;2023-03-04T15:21:29;101806.81;;;6.27;79.79
48204;BME280;33994;50.998;5.864;2023-03-04T15:24:33;101811.09;;;6.25;79.94
48204;BME280;33994;50.998;5.864;2023-03-04T15:27:36;101805.06;;;6.26;80.10
48204;BME280;33994;50.998;5.864;2023-03-04T15:30:40;101800.59;;;6.20;80.54
48204;BME280;33994;50.998;5.864;2023-03-04T15:33:43;101802.19;;;6.12;81.26
48204;BME280;33994;50.998;5.864;2023-03-04T15:36:48;101806.44;;;6.08;82.29
48204;BME280;33994;50.998;5.864;2023-03-04T15:39:54;101796.78;;;6.00;82.67
48204;BME280;33994;50.998;5.864;2023-03-04T15:43:01;101804.63;;;6.03;83.54
48204;BME280;33994;50.998;5.864;2023-03-04T15:46:05;101805.41;;;5.99;83.81
48204;BME280;33994;50.998;5.864;2023-03-04T15:49:08;101800.09;;;5.94;84.58
48204;BME280;33994;50.998;5.864;2023-03-04T15:52:14;101800.06;;;5.91;85.07
48204;BME280;33994;50.998;5.864;2023-03-04T15:55:20;101800.94;;;5.92;85.77
48204;BME280;33994;50.998;5.864;2023-03-04T15:58:23;101798.34;;;5.92;85.74
48204;BME280;33994;50.998;5.864;2023-03-04T16:01:28;101800.03;;;5.90;85.97
48204;BME280;33994;50.998;5.864;2023-03-04T16:04:31;101794.81;;;5.88;85.96
48204;BME280;33994;50.998;5.864;2023-03-04T16:07:35;101787.03;;;5.88;86.23
48204;BME280;33994;50.998;5.864;2023-03-04T16:10:38;101797.41;;;5.88;85.86
48204;BME280;33994;50.998;5.864;2023-03-04T16:13:42;101791.44;;;5.92;86.29
48204;BME280;33994;50.998;5.864;2023-03-04T16:16:46;101791.50;;;5.95;85.90
48204;BME280;33994;50.998;5.864;2023-03-04T16:19:50;101794.09;;;5.95;85.81
48204;BME280;33994;50.998;5.864;2023-03-04T16:22:55;101790.66;;;5.98;85.77
48204;BME280;33994;50.998;5.864;2023-03-04T16:25:58;101788.97;;;6.00;85.87
48204;BME280;33994;50.998;5.864;2023-03-04T16:29:02;101785.56;;;6.02;85.89
48204;BME280;33994;50.998;5.864;2023-03-04T16:32:07;101786.47;;;6.04;85.67
48204;BME280;33994;50.998;5.864;2023-03-04T16:35:12;101787.31;;;6.03;85.79
48204;BME280;33994;50.998;5.864;2023-03-04T16:38:22;101779.47;;;6.02;85.84